sensor_id;sensor_type;location;lat;lon;timestamp;P1;durP1;ratioP1;P2;durP2;ratioP2
4206;SDS011;2117;47.972;7.830;2024-01-15T00:01:13;48.73;;;22.93;;
4206;SDS011;2117;47.972;7.830;2024-01-15T00:03:39;43.20;;;22.60;;
4206;SDS011;2117;47.972;7.830;2024-01-15T00:06:05;51.97;;;25.47;;
4206;SDS011;2117;47.972;7.830;2024-01-15T00:08:30;43.00;;;23.83;;
4206;SDS011;2117;47.972;7.830;2024-01-15T00:10:56;49.63;;;23.70;;
4206;SDS011;2117;47.972;7.830;2024-01-15T00:13:22;58.13;;;25.67;;
4206;SDS011;2117;47.972;7.830;2024-01-15T00:15:47;56.67;;;25.30;;
4206;SDS011;2117;47.972;7.830;2024-01-15T00:18:13;54.13;;;24.60;;
4206;SDS011;2117;47.972;7.830;2024-01-15T00:20:38;39.80;;;22.27;;
4206;SDS011;2117;47.972;7.830;2024-01-15T00:23:04;49.17;;;23.30;;
4206;SDS011;2117;47.972;7.830;2024-01-15T00:25:29;43.87;;;23.00;;
4206;SDS011;2117;47.972;7.830;2024-01-15T00:27:55;47.17;;;21.40;;
4206;SDS011;2117;47.972;7.830;2024-01-15T00:30:21;44.60;;;22.63;;
4206;SDS011;2117;47.972;7.830;2024-01-15T00:32:46;42.97;;;21.17;;
4206;SDS011;2117;47.972;7.830;2024-01-15T00:35:12;45.57;;;22.03;;
4206;SDS011;2117;47.972;7.830;2024-01-15T00:37:38;46.00;;;23.33;;
4206;SDS011;2117;47.972;7.830;2024-01-15T00:40:04;44.43;;;21.50;;
4206;SDS011;2117;47.972;7.830;2024-01-15T00:42:30;42.10;;;21.33;;
4206;SDS011;2117;47.972;7.830;2024-01-15T00:44:56;43.90;;;21.70;;
4206;SDS011;2117;47.972;7.830;2024-01-15T00:47:21;45.97;;;21.43;;
4206;SDS011;2117;47.972;7.830;2024-01-15T00:49:47;48.60;;;22.67;;
4206;SDS011;2117;47.972;7.830;2024-01-15T00:52:13;58.33;;;24.70;;
4206;SDS011;2117;47.972;7.830;2024-01-15T00:54:38;47.33;;;22.37;;
4206;SDS011;2117;47.972;7.830;2024-01-15T00:57:05;43.23;;;21.57;;
4206;SDS011;2117;47.972;7.830;2024-01-15T00:59:30;50.03;;;22.97;;
4206;SDS011;2117;47.972;7.830;2024-01-15T01:01:56;50.43;;;21.97;;
4206;SDS011;2117;47.972;7.830;2024-01-15T01:04:21;43.23;;;21.17;;
4206;SDS011;2117;47.972;7.830;2024-01-15T01:06:47;47.57;;;22.50;;
4206;SDS011;2117;47.972;7.830;2024-01-15T01:09:13;46.77;;;20.23;;
4206;SDS011;2117;47.972;7.830;2024-01-15T01:11:38;44.40;;;20.83;;
4206;SDS011;2117;47.972;7.830;2024-01-15T01:14:04;41.43;;;21.30;;
4206;SDS011;2117;47.972;7.830;2024-01-15T01:16:30;42.23;;;19.23;;
4206;SDS011;2117;47.972;7.830;2024-01-15T01:18:56;41.37;;;19.17;;
4206;SDS011;2117;47.972;7.830;2024-01-15T01:21:22;41.10;;;19.53;;
4206;SDS011;2117;47.972;7.830;2024-01-15T01:23:47;46.17;;;21.23;;
4206;SDS011;2117;47.972;7.830;2024-01-15T01:26:16;38.37;;;19.60;;
4206;SDS011;2117;47.972;7.830;2024-01-15T01:28:42;32.90;;;16.30;;
4206;SDS011;2117;47.972;7.830;2024-01-15T01:31:08;38.30;;;17.30;;
4206;SDS011;2117;47.972;7.830;2024-01-15T01:33:33;32.80;;;16.40;;
4206;SDS011;2117;47.972;7.830;2024-01-15T01:35:59;31.53;;;17.00;;
4206;SDS011;2117;47.972;7.830;2024-01-15T01:38:24;34.33;;;16.00;;
4206;SDS011;2117;47.972;7.830;2024-01-15T01:40:50;25.80;;;13.57;;
4206;SDS011;2117;47.972;7.830;2024-01-15T01:43:16;32.43;;;15.10;;
4206;SDS011;2117;47.972;7.830;2024-01-15T01:45:42;30.37;;;14.20;;
4206;SDS011;2117;47.972;7.830;2024-01-15T01:48:08;30.93;;;15.60;;
4206;SDS011;2117;47.972;7.830;2024-01-15T01:50:33;28.87;;;14.73;;
4206;SDS011;2117;47.972;7.830;2024-01-15T01:53:00;34.37;;;13.90;;
4206;SDS011;2117;47.972;7.830;2024-01-15T01:55:26;23.57;;;12.77;;
4206;SDS011;2117;47.972;7.830;2024-01-15T01:57:54;29.37;;;14.60;;
4206;SDS011;2117;47.972;7.830;2024-01-15T02:00:20;27.53;;;12.43;;
4206;SDS011;2117;47.972;7.830;2024-01-15T02:02:46;30.50;;;14.73;;
4206;SDS011;2117;47.972;7.830;2024-01-15T02:05:11;23.03;;;12.27;;
4206;SDS011;2117;47.972;7.830;2024-01-15T02:07:39;29.60;;;15.10;;
4206;SDS011;2117;47.972;7.830;2024-01-15T02:10:05;26.20;;;11.83;;
4206;SDS011;2117;47.972;7.830;2024-01-15T02:12:31;25.87;;;12.07;;
4206;SDS011;2117;47.972;7.830;2024-01-15T02:14:57;27.10;;;12.60;;
4206;SDS011;2117;47.972;7.830;2024-01-15T02:17:23;23.83;;;13.00;;
4206;SDS011;2117;47.972;7.830;2024-01-15T02:19:49;32.63;;;13.57;;
4206;SDS011;2117;47.972;7.830;2024-01-15T02:22:15;31.10;;;15.83;;
4206;SDS011;2117;47.972;7.830;2024-01-15T02:24:40;32.60;;;15.90;;
4206;SDS011;2117;47.972;7.830;2024-01-15T02:27:06;37.67;;;18.50;;
4206;SDS011;2117;47.972;7.830;2024-01-15T02:29:32;43.33;;;19.70;;
4206;SDS011;2117;47.972;7.830;2024-01-15T02:31:58;49.70;;;19.43;;
4206;SDS011;2117;47.972;7.830;2024-01-15T02:34:23;38.53;;;19.63;;
4206;SDS011;2117;47.972;7.830;2024-01-15T02:36:49;40.57;;;19.27;;
4206;SDS011;2117;47.972;7.830;2024-01-15T02:39:14;40.57;;;19.60;;
4206;SDS011;2117;47.972;7.830;2024-01-15T02:41:40;39.80;;;19.80;;
4206;SDS011;2117;47.972;7.830;2024-01-15T02:44:05;35.63;;;19.87;;
4206;SDS011;2117;47.972;7.830;2024-01-15T02:46:31;39.83;;;20.83;;
4206;SDS011;2117;47.972;7.830;2024-01-15T02:48:56;44.87;;;21.10;;
4206;SDS011;2117;47.972;7.830;2024-01-15T02:51:22;43.10;;;18.97;;
4206;SDS011;2117;47.972;7.830;2024-01-15T02:53:48;48.60;;;21.40;;
4206;SDS011;2117;47.972;7.830;2024-01-15T02:56:15;40.73;;;20.63;;
4206;SDS011;2117;47.972;7.830;2024-01-15T02:58:40;44.87;;;19.50;;
4206;SDS011;2117;47.972;7.830;2024-01-15T03:01:06;48.67;;;21.50;;
4206;SDS011;2117;47.972;7.830;2024-01-15T03:03:31;46.17;;;20.20;;
4206;SDS011;2117;47.972;7.830;2024-01-15T03:05:58;42.23;;;21.43;;
4206;SDS011;2117;47.972;7.830;2024-01-15T03:08:23;40.93;;;20.10;;
4206;SDS011;2117;47.972;7.830;2024-01-15T03:10:49;50.43;;;22.57;;
4206;SDS011;2117;47.972;7.830;2024-01-15T03:13:15;41.63;;;20.13;;
4206;SDS011;2117;47.972;7.830;2024-01-15T03:15:41;47.23;;;19.93;;
4206;SDS011;2117;47.972;7.830;2024-01-15T03:18:07;37.23;;;18.90;;
4206;SDS011;2117;47.972;7.830;2024-01-15T03:20:33;47.90;;;20.63;;
4206;SDS011;2117;47.972;7.830;2024-01-15T03:22:58;44.10;;;20.10;;
4206;SDS011;2117;47.972;7.830;2024-01-15T03:25:24;39.57;;;21.50;;
4206;SDS011;2117;47.972;7.830;2024-01-15T03:27:49;38.23;;;19.97;;
4206;SDS011;2117;47.972;7.830;2024-01-15T03:30:15;44.50;;;20.80;;
4206;SDS011;2117;47.972;7.830;2024-01-15T03:32:41;38.50;;;19.60;;
4206;SDS011;2117;47.972;7.830;2024-01-15T03:35:06;40.90;;;20.00;;
4206;SDS011;2117;47.972;7.830;2024-01-15T03:37:32;39.60;;;21.23;;
4206;SDS011;2117;47.972;7.830;2024-01-15T03:39:57;42.50;;;20.50;;
4206;SDS011;2117;47.972;7.830;2024-01-15T03:42:23;42.70;;;20.53;;
4206;SDS011;2117;47.972;7.830;2024-01-15T03:44:49;43.30;;;19.00;;
4206;SDS011;2117;47.972;7.830;2024-01-15T03:47:14;41.50;;;19.77;;
4206;SDS011;2117;47.972;7.830;2024-01-15T03:49:40;48.37;;;22.27;;
4206;SDS011;2117;47.972;7.830;2024-01-15T03:52:05;47.80;;;20.20;;
4206;SDS011;2117;47.972;7.830;2024-01-15T03:54:31;41.37;;;20.50;;
4206;SDS011;2117;47.972;7.830;2024-01-15T03:56:56;37.73;;;19.80;;
4206;SDS011;2117;47.972;7.830;2024-01-15T03:59:22;42.40;;;21.70;;
4206;SDS011;2117;47.972;7.830;2024-01-15T04:01:48;41.50;;;20.50;;
4206;SDS011;2117;47.972;7.830;2024-01-15T04:04:17;34.20;;;18.13;;
4206;SDS011;2117;47.972;7.830;2024-01-15T04:06:43;41.00;;;20.17;;
4206;SDS011;2117;47.972;7.830;2024-01-15T04:09:08;49.70;;;20.77;;
4206;SDS011;2117;47.972;7.830;2024-01-15T04:11:34;44.90;;;21.10;;
4206;SDS011;2117;47.972;7.830;2024-01-15T04:13:59;48.90;;;21.10;;
4206;SDS011;2117;47.972;7.830;2024-01-15T04:16:25;41.50;;;21.80;;
4206;SDS011;2117;47.972;7.830;2024-01-15T04:18:50;50.10;;;22.10;;
4206;SDS011;2117;47.972;7.830;2024-01-15T04:21:17;43.40;;;21.27;;
4206;SDS011;2117;47.972;7.830;2024-01-15T04:23:43;49.30;;;23.40;;
4206;SDS011;2117;47.972;7.830;2024-01-15T04:26:09;44.03;;;22.40;;
4206;SDS011;2117;47.972;7.830;2024-01-15T04:28:34;42.30;;;22.40;;
4206;SDS011;2117;47.972;7.830;2024-01-15T04:31:00;51.40;;;23.73;;
4206;SDS011;2117;47.972;7.830;2024-01-15T04:33:25;47.43;;;23.07;;
4206;SDS011;2117;47.972;7.830;2024-01-15T04:35:51;44.33;;;21.00;;
4206;SDS011;2117;47.972;7.830;2024-01-15T04:38:16;53.23;;;23.50;;
4206;SDS011;2117;47.972;7.830;2024-01-15T04:40:42;39.30;;;21.00;;
4206;SDS011;2117;47.972;7.830;2024-01-15T04:43:08;42.30;;;21.63;;
4206;SDS011;2117;47.972;7.830;2024-01-15T04:45:33;53.47;;;26.07;;
4206;SDS011;2117;47.972;7.830;2024-01-15T04:47:59;56.60;;;24.60;;
4206;SDS011;2117;47.972;7.830;2024-01-15T04:50:24;50.17;;;23.43;;
4206;SDS011;2117;47.972;7.830;2024-01-15T04:52:50;45.40;;;22.70;;
4206;SDS011;2117;47.972;7.830;2024-01-15T04:55:16;54.47;;;24.60;;
4206;SDS011;2117;47.972;7.830;2024-01-15T04:57:41;50.90;;;24.13;;
4206;SDS011;2117;47.972;7.830;2024-01-15T05:00:07;44.20;;;22.97;;
4206;SDS011;2117;47.972;7.830;2024-01-15T05:02:32;56.43;;;23.60;;
4206;SDS011;2117;47.972;7.830;2024-01-15T05:04:58;51.90;;;24.00;;
4206;SDS011;2117;47.972;7.830;2024-01-15T05:07:24;48.20;;;22.57;;
4206;SDS011;2117;47.972;7.830;2024-01-15T05:09:49;45.90;;;22.13;;
4206;SDS011;2117;47.972;7.830;2024-01-15T05:12:15;56.27;;;25.63;;
4206;SDS011;2117;47.972;7.830;2024-01-15T05:14:40;54.30;;;23.40;;
4206;SDS011;2117;47.972;7.830;2024-01-15T05:17:06;52.80;;;22.80;;
4206;SDS011;2117;47.972;7.830;2024-01-15T05:19:31;48.33;;;23.70;;
4206;SDS011;2117;47.972;7.830;2024-01-15T05:21:57;46.50;;;22.10;;
4206;SDS011;2117;47.972;7.830;2024-01-15T05:24:22;46.07;;;22.53;;
4206;SDS011;2117;47.972;7.830;2024-01-15T05:26:48;46.63;;;21.40;;
4206;SDS011;2117;47.972;7.830;2024-01-15T05:29:14;45.57;;;24.20;;
4206;SDS011;2117;47.972;7.830;2024-01-15T05:31:39;55.50;;;23.00;;
4206;SDS011;2117;47.972;7.830;2024-01-15T05:34:05;54.23;;;22.00;;
4206;SDS011;2117;47.972;7.830;2024-01-15T05:36:30;45.47;;;20.53;;
4206;SDS011;2117;47.972;7.830;2024-01-15T05:38:56;46.97;;;23.30;;
4206;SDS011;2117;47.972;7.830;2024-01-15T05:41:21;52.10;;;25.10;;
4206;SDS011;2117;47.972;7.830;2024-01-15T05:43:47;47.90;;;21.90;;
4206;SDS011;2117;47.972;7.830;2024-01-15T05:46:12;61.23;;;24.70;;
4206;SDS011;2117;47.972;7.830;2024-01-15T05:48:38;44.17;;;22.23;;
4206;SDS011;2117;47.972;7.830;2024-01-15T05:51:04;52.30;;;21.40;;
4206;SDS011;2117;47.972;7.830;2024-01-15T05:53:29;53.07;;;23.10;;
4206;SDS011;2117;47.972;7.830;2024-01-15T05:55:55;50.50;;;21.77;;
4206;SDS011;2117;47.972;7.830;2024-01-15T05:58:21;57.63;;;22.90;;
4206;SDS011;2117;47.972;7.830;2024-01-15T06:00:47;51.97;;;22.10;;
4206;SDS011;2117;47.972;7.830;2024-01-15T06:03:14;39.53;;;19.20;;
4206;SDS011;2117;47.972;7.830;2024-01-15T06:05:40;50.20;;;20.83;;
4206;SDS011;2117;47.972;7.830;2024-01-15T06:08:06;44.10;;;21.60;;
4206;SDS011;2117;47.972;7.830;2024-01-15T06:10:31;48.50;;;20.83;;
4206;SDS011;2117;47.972;7.830;2024-01-15T06:12:57;46.30;;;20.40;;
4206;SDS011;2117;47.972;7.830;2024-01-15T06:15:22;51.80;;;22.90;;
4206;SDS011;2117;47.972;7.830;2024-01-15T06:17:48;37.70;;;17.43;;
4206;SDS011;2117;47.972;7.830;2024-01-15T06:20:13;52.33;;;20.80;;
4206;SDS011;2117;47.972;7.830;2024-01-15T06:22:39;42.10;;;19.47;;
4206;SDS011;2117;47.972;7.830;2024-01-15T06:25:06;48.93;;;20.20;;
4206;SDS011;2117;47.972;7.830;2024-01-15T06:27:33;45.33;;;21.10;;
4206;SDS011;2117;47.972;7.830;2024-01-15T06:29:59;45.20;;;20.03;;
4206;SDS011;2117;47.972;7.830;2024-01-15T06:32:24;40.43;;;20.30;;
4206;SDS011;2117;47.972;7.830;2024-01-15T06:34:50;43.07;;;20.33;;
4206;SDS011;2117;47.972;7.830;2024-01-15T06:37:15;39.47;;;19.83;;
4206;SDS011;2117;47.972;7.830;2024-01-15T06:39:41;42.27;;;20.73;;
4206;SDS011;2117;47.972;7.830;2024-01-15T06:42:07;44.97;;;19.50;;
4206;SDS011;2117;47.972;7.830;2024-01-15T06:44:32;47.60;;;20.37;;
4206;SDS011;2117;47.972;7.830;2024-01-15T06:46:58;42.17;;;18.37;;
4206;SDS011;2117;47.972;7.830;2024-01-15T06:49:27;48.10;;;19.90;;
4206;SDS011;2117;47.972;7.830;2024-01-15T06:51:54;31.23;;;16.07;;
4206;SDS011;2117;47.972;7.830;2024-01-15T06:54:20;39.10;;;17.63;;
4206;SDS011;2117;47.972;7.830;2024-01-15T06:56:45;45.13;;;20.77;;
4206;SDS011;2117;47.972;7.830;2024-01-15T06:59:11;56.33;;;22.33;;
4206;SDS011;2117;47.972;7.830;2024-01-15T07:01:36;42.80;;;18.80;;
4206;SDS011;2117;47.972;7.830;2024-01-15T07:04:02;47.20;;;19.57;;
4206;SDS011;2117;47.972;7.830;2024-01-15T07:06:28;45.80;;;21.07;;
4206;SDS011;2117;47.972;7.830;2024-01-15T07:08:55;38.77;;;19.80;;
4206;SDS011;2117;47.972;7.830;2024-01-15T07:11:21;46.43;;;20.37;;
4206;SDS011;2117;47.972;7.830;2024-01-15T07:13:47;40.47;;;17.30;;
4206;SDS011;2117;47.972;7.830;2024-01-15T07:16:13;42.97;;;18.00;;
4206;SDS011;2117;47.972;7.830;2024-01-15T07:18:38;38.70;;;17.83;;
4206;SDS011;2117;47.972;7.830;2024-01-15T07:21:04;35.63;;;16.90;;
4206;SDS011;2117;47.972;7.830;2024-01-15T07:23:30;44.93;;;21.30;;
4206;SDS011;2117;47.972;7.830;2024-01-15T07:25:57;40.90;;;18.03;;
4206;SDS011;2117;47.972;7.830;2024-01-15T07:28:22;41.50;;;17.23;;
4206;SDS011;2117;47.972;7.830;2024-01-15T07:30:48;25.43;;;13.40;;
4206;SDS011;2117;47.972;7.830;2024-01-15T07:33:14;29.00;;;14.43;;
4206;SDS011;2117;47.972;7.830;2024-01-15T07:35:39;26.60;;;12.70;;
4206;SDS011;2117;47.972;7.830;2024-01-15T07:38:05;24.60;;;12.63;;
4206;SDS011;2117;47.972;7.830;2024-01-15T07:40:30;26.47;;;11.57;;
4206;SDS011;2117;47.972;7.830;2024-01-15T07:42:56;20.83;;;11.87;;
4206;SDS011;2117;47.972;7.830;2024-01-15T07:45:22;29.80;;;12.17;;
4206;SDS011;2117;47.972;7.830;2024-01-15T07:47:47;22.73;;;9.40;;
4206;SDS011;2117;47.972;7.830;2024-01-15T07:50:14;19.70;;;9.50;;
4206;SDS011;2117;47.972;7.830;2024-01-15T07:52:40;22.00;;;9.67;;
4206;SDS011;2117;47.972;7.830;2024-01-15T07:55:06;19.10;;;8.30;;
4206;SDS011;2117;47.972;7.830;2024-01-15T07:57:32;13.53;;;7.37;;
4206;SDS011;2117;47.972;7.830;2024-01-15T07:59:58;11.70;;;5.93;;
4206;SDS011;2117;47.972;7.830;2024-01-15T08:02:24;11.27;;;5.47;;
4206;SDS011;2117;47.972;7.830;2024-01-15T08:04:49;12.30;;;5.63;;
4206;SDS011;2117;47.972;7.830;2024-01-15T08:07:15;12.33;;;5.70;;
4206;SDS011;2117;47.972;7.830;2024-01-15T08:09:40;11.70;;;5.90;;
4206;SDS011;2117;47.972;7.830;2024-01-15T08:12:06;13.57;;;6.70;;
4206;SDS011;2117;47.972;7.830;2024-01-15T08:14:32;12.43;;;5.40;;
4206;SDS011;2117;47.972;7.830;2024-01-15T08:16:58;9.97;;;5.17;;
4206;SDS011;2117;47.972;7.830;2024-01-15T08:19:24;9.17;;;4.37;;
4206;SDS011;2117;47.972;7.830;2024-01-15T08:21:49;7.53;;;3.20;;
4206;SDS011;2117;47.972;7.830;2024-01-15T08:24:15;8.63;;;3.73;;
4206;SDS011;2117;47.972;7.830;2024-01-15T08:26:42;7.90;;;3.73;;
4206;SDS011;2117;47.972;7.830;2024-01-15T08:29:07;7.43;;;3.47;;
4206;SDS011;2117;47.972;7.830;2024-01-15T08:31:36;6.60;;;3.80;;
4206;SDS011;2117;47.972;7.830;2024-01-15T08:34:02;6.90;;;3.87;;
4206;SDS011;2117;47.972;7.830;2024-01-15T08:36:27;9.70;;;4.20;;
4206;SDS011;2117;47.972;7.830;2024-01-15T08:38:55;7.73;;;4.63;;
4206;SDS011;2117;47.972;7.830;2024-01-15T08:41:21;7.60;;;4.20;;
4206;SDS011;2117;47.972;7.830;2024-01-15T08:43:46;10.00;;;5.13;;
4206;SDS011;2117;47.972;7.830;2024-01-15T08:46:12;8.90;;;4.60;;
4206;SDS011;2117;47.972;7.830;2024-01-15T08:48:38;6.63;;;3.70;;
4206;SDS011;2117;47.972;7.830;2024-01-15T08:51:04;6.07;;;3.60;;
4206;SDS011;2117;47.972;7.830;2024-01-15T08:53:30;8.47;;;4.47;;
4206;SDS011;2117;47.972;7.830;2024-01-15T08:55:55;8.47;;;4.13;;
4206;SDS011;2117;47.972;7.830;2024-01-15T08:58:22;7.80;;;3.13;;
4206;SDS011;2117;47.972;7.830;2024-01-15T09:00:48;6.30;;;3.37;;
4206;SDS011;2117;47.972;7.830;2024-01-15T09:03:15;6.83;;;3.00;;
4206;SDS011;2117;47.972;7.830;2024-01-15T09:05:41;8.43;;;4.23;;
4206;SDS011;2117;47.972;7.830;2024-01-15T09:08:07;9.83;;;4.37;;
4206;SDS011;2117;47.972;7.830;2024-01-15T09:10:33;6.50;;;4.00;;
4206;SDS011;2117;47.972;7.830;2024-01-15T09:12:59;8.87;;;4.37;;
4206;SDS011;2117;47.972;7.830;2024-01-15T09:15:25;9.30;;;4.90;;
4206;SDS011;2117;47.972;7.830;2024-01-15T09:17:50;11.03;;;4.67;;
4206;SDS011;2117;47.972;7.830;2024-01-15T09:20:16;12.80;;;5.30;;
4206;SDS011;2117;47.972;7.830;2024-01-15T09:22:42;9.23;;;5.00;;
4206;SDS011;2117;47.972;7.830;2024-01-15T09:25:08;13.40;;;5.03;;
4206;SDS011;2117;47.972;7.830;2024-01-15T09:27:34;10.33;;;5.20;;
4206;SDS011;2117;47.972;7.830;2024-01-15T09:30:00;11.07;;;5.50;;
4206;SDS011;2117;47.972;7.830;2024-01-15T09:32:27;8.80;;;4.97;;
4206;SDS011;2117;47.972;7.830;2024-01-15T09:34:52;7.30;;;4.40;;
4206;SDS011;2117;47.972;7.830;2024-01-15T09:37:18;12.07;;;4.53;;
4206;SDS011;2117;47.972;7.830;2024-01-15T09:39:43;11.43;;;7.70;;
4206;SDS011;2117;47.972;7.830;2024-01-15T09:42:09;6.20;;;4.07;;
4206;SDS011;2117;47.972;7.830;2024-01-15T09:44:35;9.03;;;4.80;;
4206;SDS011;2117;47.972;7.830;2024-01-15T09:47:03;11.17;;;5.50;;
4206;SDS011;2117;47.972;7.830;2024-01-15T09:49:30;8.40;;;4.40;;
4206;SDS011;2117;47.972;7.830;2024-01-15T09:51:55;10.60;;;7.57;;
4206;SDS011;2117;47.972;7.830;2024-01-15T09:54:23;11.03;;;6.10;;
4206;SDS011;2117;47.972;7.830;2024-01-15T09:56:48;22.60;;;12.90;;
4206;SDS011;2117;47.972;7.830;2024-01-15T09:59:17;11.20;;;7.00;;
4206;SDS011;2117;47.972;7.830;2024-01-15T10:01:44;16.53;;;8.80;;
4206;SDS011;2117;47.972;7.830;2024-01-15T10:04:10;20.20;;;11.13;;
4206;SDS011;2117;47.972;7.830;2024-01-15T10:06:40;13.40;;;7.30;;
4206;SDS011;2117;47.972;7.830;2024-01-15T10:09:12;11.50;;;7.43;;
4206;SDS011;2117;47.972;7.830;2024-01-15T10:11:42;18.33;;;8.20;;
4206;SDS011;2117;47.972;7.830;2024-01-15T10:14:11;23.47;;;12.57;;
4206;SDS011;2117;47.972;7.830;2024-01-15T10:16:38;22.97;;;12.37;;
4206;SDS011;2117;47.972;7.830;2024-01-15T10:19:04;27.83;;;16.17;;
4206;SDS011;2117;47.972;7.830;2024-01-15T10:21:31;22.40;;;11.70;;
4206;SDS011;2117;47.972;7.830;2024-01-15T10:23:59;23.33;;;14.10;;
4206;SDS011;2117;47.972;7.830;2024-01-15T10:26:26;18.70;;;11.33;;
4206;SDS011;2117;47.972;7.830;2024-01-15T10:28:52;15.90;;;8.33;;
4206;SDS011;2117;47.972;7.830;2024-01-15T10:31:17;21.10;;;9.30;;
4206;SDS011;2117;47.972;7.830;2024-01-15T10:33:44;20.67;;;10.80;;
4206;SDS011;2117;47.972;7.830;2024-01-15T10:36:10;17.50;;;10.00;;
4206;SDS011;2117;47.972;7.830;2024-01-15T10:38:38;21.20;;;9.63;;
4206;SDS011;2117;47.972;7.830;2024-01-15T10:41:04;18.63;;;9.33;;
4206;SDS011;2117;47.972;7.830;2024-01-15T10:43:29;20.03;;;10.27;;
4206;SDS011;2117;47.972;7.830;2024-01-15T10:45:55;22.37;;;11.97;;
4206;SDS011;2117;47.972;7.830;2024-01-15T10:48:21;21.13;;;10.03;;
4206;SDS011;2117;47.972;7.830;2024-01-15T10:50:47;20.00;;;10.30;;
4206;SDS011;2117;47.972;7.830;2024-01-15T10:53:14;19.40;;;10.33;;
4206;SDS011;2117;47.972;7.830;2024-01-15T10:55:41;21.40;;;9.43;;
4206;SDS011;2117;47.972;7.830;2024-01-15T10:58:09;21.10;;;10.43;;
4206;SDS011;2117;47.972;7.830;2024-01-15T11:00:35;18.37;;;9.83;;
4206;SDS011;2117;47.972;7.830;2024-01-15T11:03:02;23.63;;;11.70;;
4206;SDS011;2117;47.972;7.830;2024-01-15T11:05:32;21.40;;;10.57;;
4206;SDS011;2117;47.972;7.830;2024-01-15T11:08:08;61.57;;;27.00;;
4206;SDS011;2117;47.972;7.830;2024-01-15T11:10:38;31.23;;;16.57;;
4206;SDS011;2117;47.972;7.830;2024-01-15T11:13:53;23.30;;;14.67;;
4206;SDS011;2117;47.972;7.830;2024-01-15T11:18:34;24.37;;;15.43;;
4206;SDS011;2117;47.972;7.830;2024-01-15T11:23:43;44.23;;;25.50;;
4206;SDS011;2117;47.972;7.830;2024-01-15T11:27:11;30.07;;;16.30;;
4206;SDS011;2117;47.972;7.830;2024-01-15T11:29:06;38.40;;;20.50;;
4206;SDS011;2117;47.972;7.830;2024-01-15T11:34:05;29.67;;;17.00;;
4206;SDS011;2117;47.972;7.830;2024-01-15T11:41:54;38.17;;;19.67;;
4206;SDS011;2117;47.972;7.830;2024-01-15T11:44:20;53.60;;;25.10;;
4206;SDS011;2117;47.972;7.830;2024-01-15T11:46:52;34.90;;;16.50;;
4206;SDS011;2117;47.972;7.830;2024-01-15T11:49:28;42.47;;;21.80;;
4206;SDS011;2117;47.972;7.830;2024-01-15T11:52:19;29.30;;;15.63;;
4206;SDS011;2117;47.972;7.830;2024-01-15T11:54:53;40.53;;;20.63;;
4206;SDS011;2117;47.972;7.830;2024-01-15T11:57:33;51.60;;;26.33;;
4206;SDS011;2117;47.972;7.830;2024-01-15T12:00:04;38.77;;;19.87;;
4206;SDS011;2117;47.972;7.830;2024-01-15T12:02:30;47.60;;;23.20;;
4206;SDS011;2117;47.972;7.830;2024-01-15T12:04:56;42.70;;;20.40;;
4206;SDS011;2117;47.972;7.830;2024-01-15T12:07:21;45.37;;;20.90;;
4206;SDS011;2117;47.972;7.830;2024-01-15T12:09:47;67.07;;;27.53;;
4206;SDS011;2117;47.972;7.830;2024-01-15T12:12:13;49.80;;;21.10;;
4206;SDS011;2117;47.972;7.830;2024-01-15T12:14:54;43.00;;;21.20;;
4206;SDS011;2117;47.972;7.830;2024-01-15T12:17:19;33.43;;;14.97;;
4206;SDS011;2117;47.972;7.830;2024-01-15T12:19:45;34.10;;;16.40;;
4206;SDS011;2117;47.972;7.830;2024-01-15T12:22:11;47.40;;;23.70;;
4206;SDS011;2117;47.972;7.830;2024-01-15T12:24:36;26.77;;;13.37;;
4206;SDS011;2117;47.972;7.830;2024-01-15T12:27:02;80.80;;;42.53;;
4206;SDS011;2117;47.972;7.830;2024-01-15T12:29:29;30.50;;;15.20;;
4206;SDS011;2117;47.972;7.830;2024-01-15T12:31:55;33.80;;;20.57;;
4206;SDS011;2117;47.972;7.830;2024-01-15T12:34:21;27.83;;;16.10;;
4206;SDS011;2117;47.972;7.830;2024-01-15T12:36:47;28.17;;;19.10;;
4206;SDS011;2117;47.972;7.830;2024-01-15T12:39:12;26.90;;;16.03;;
4206;SDS011;2117;47.972;7.830;2024-01-15T12:41:38;24.43;;;12.53;;
4206;SDS011;2117;47.972;7.830;2024-01-15T12:44:04;21.60;;;13.50;;
4206;SDS011;2117;47.972;7.830;2024-01-15T12:46:30;19.73;;;12.67;;
4206;SDS011;2117;47.972;7.830;2024-01-15T12:48:56;18.47;;;10.27;;
4206;SDS011;2117;47.972;7.830;2024-01-15T12:51:25;22.97;;;11.23;;
4206;SDS011;2117;47.972;7.830;2024-01-15T12:53:51;20.50;;;10.87;;
4206;SDS011;2117;47.972;7.830;2024-01-15T12:56:17;24.87;;;11.70;;
4206;SDS011;2117;47.972;7.830;2024-01-15T12:58:42;18.17;;;10.37;;
4206;SDS011;2117;47.972;7.830;2024-01-15T13:01:08;27.07;;;16.60;;
4206;SDS011;2117;47.972;7.830;2024-01-15T13:03:34;45.13;;;22.97;;
4206;SDS011;2117;47.972;7.830;2024-01-15T13:06:00;31.23;;;17.33;;
4206;SDS011;2117;47.972;7.830;2024-01-15T13:08:25;26.07;;;13.73;;
4206;SDS011;2117;47.972;7.830;2024-01-15T13:10:53;20.30;;;10.90;;
4206;SDS011;2117;47.972;7.830;2024-01-15T13:13:21;21.33;;;12.83;;
4206;SDS011;2117;47.972;7.830;2024-01-15T13:15:47;22.70;;;12.47;;
4206;SDS011;2117;47.972;7.830;2024-01-15T13:18:12;20.77;;;12.00;;
4206;SDS011;2117;47.972;7.830;2024-01-15T13:20:38;21.67;;;12.20;;
4206;SDS011;2117;47.972;7.830;2024-01-15T13:23:03;18.67;;;11.47;;
4206;SDS011;2117;47.972;7.830;2024-01-15T13:25:29;22.43;;;12.10;;
4206;SDS011;2117;47.972;7.830;2024-01-15T13:27:55;22.43;;;11.10;;
4206;SDS011;2117;47.972;7.830;2024-01-15T13:30:20;23.53;;;12.03;;
4206;SDS011;2117;47.972;7.830;2024-01-15T13:32:46;26.80;;;12.87;;
4206;SDS011;2117;47.972;7.830;2024-01-15T13:35:12;15.53;;;8.77;;
4206;SDS011;2117;47.972;7.830;2024-01-15T13:37:38;25.37;;;12.27;;
4206;SDS011;2117;47.972;7.830;2024-01-15T13:40:06;25.90;;;14.47;;
4206;SDS011;2117;47.972;7.830;2024-01-15T13:42:34;26.47;;;13.53;;
4206;SDS011;2117;47.972;7.830;2024-01-15T13:45:03;27.90;;;14.17;;
4206;SDS011;2117;47.972;7.830;2024-01-15T13:47:30;26.20;;;13.40;;
4206;SDS011;2117;47.972;7.830;2024-01-15T13:49:56;29.40;;;13.33;;
4206;SDS011;2117;47.972;7.830;2024-01-15T13:52:22;32.87;;;16.93;;
4206;SDS011;2117;47.972;7.830;2024-01-15T13:54:48;26.47;;;14.27;;
4206;SDS011;2117;47.972;7.830;2024-01-15T13:57:14;26.37;;;13.77;;
4206;SDS011;2117;47.972;7.830;2024-01-15T13:59:39;30.90;;;14.20;;
4206;SDS011;2117;47.972;7.830;2024-01-15T14:02:05;25.97;;;16.20;;
4206;SDS011;2117;47.972;7.830;2024-01-15T14:04:30;32.93;;;19.27;;
4206;SDS011;2117;47.972;7.830;2024-01-15T14:06:56;50.60;;;29.30;;
4206;SDS011;2117;47.972;7.830;2024-01-15T14:09:21;190.23;;;101.80;;
4206;SDS011;2117;47.972;7.830;2024-01-15T14:11:47;66.27;;;33.07;;
4206;SDS011;2117;47.972;7.830;2024-01-15T14:14:14;110.73;;;50.27;;
4206;SDS011;2117;47.972;7.830;2024-01-15T14:16:39;160.83;;;65.03;;
4206;SDS011;2117;47.972;7.830;2024-01-15T14:19:05;149.33;;;68.57;;
4206;SDS011;2117;47.972;7.830;2024-01-15T14:21:34;106.50;;;44.57;;
4206;SDS011;2117;47.972;7.830;2024-01-15T14:24:01;33.03;;;18.70;;
4206;SDS011;2117;47.972;7.830;2024-01-15T14:26:27;30.57;;;16.60;;
4206;SDS011;2117;47.972;7.830;2024-01-15T14:28:52;34.27;;;20.70;;
4206;SDS011;2117;47.972;7.830;2024-01-15T14:31:19;38.83;;;23.87;;
4206;SDS011;2117;47.972;7.830;2024-01-15T14:33:45;40.77;;;21.37;;
4206;SDS011;2117;47.972;7.830;2024-01-15T14:36:11;31.93;;;17.13;;
4206;SDS011;2117;47.972;7.830;2024-01-15T14:38:36;43.57;;;29.00;;
4206;SDS011;2117;47.972;7.830;2024-01-15T14:41:02;31.03;;;19.53;;
4206;SDS011;2117;47.972;7.830;2024-01-15T14:43:27;35.60;;;18.43;;
4206;SDS011;2117;47.972;7.830;2024-01-15T14:45:53;29.80;;;19.30;;
4206;SDS011;2117;47.972;7.830;2024-01-15T14:48:18;36.20;;;22.53;;
4206;SDS011;2117;47.972;7.830;2024-01-15T14:50:44;33.37;;;20.67;;
4206;SDS011;2117;47.972;7.830;2024-01-15T14:53:09;34.23;;;20.20;;
4206;SDS011;2117;47.972;7.830;2024-01-15T14:55:35;34.63;;;17.43;;
4206;SDS011;2117;47.972;7.830;2024-01-15T14:58:01;32.80;;;17.63;;